createdAt,value
2019-05-05T00:00:08.383Z,37.68
2019-05-05T00:01:08.354Z,37.54
2019-05-05T00:02:08.354Z,37.50
2019-05-05T00:03:08.346Z,37.41
2019-05-05T00:04:08.339Z,37.42
2019-05-05T00:05:08.765Z,37.41
2019-05-05T00:06:08.320Z,37.35
2019-05-05T00:07:08.320Z,37.19
2019-05-05T00:08:08.322Z,36.94
2019-05-05T00:09:08.294Z,36.76
2019-05-05T00:10:08.295Z,36.42
2019-05-05T00:11:08.279Z,36.35
2019-05-05T00:12:08.289Z,36.12
2019-05-05T00:13:08.280Z,36.15
2019-05-05T00:14:08.276Z,35.97
2019-05-05T00:15:08.274Z,35.86
2019-05-05T00:16:08.237Z,35.70
2019-05-05T00:17:08.245Z,35.67
2019-05-05T00:18:08.245Z,35.37
2019-05-05T00:19:08.236Z,35.32
2019-05-05T00:20:08.224Z,35.26
2019-05-05T00:21:08.221Z,35.15
2019-05-05T00:22:08.192Z,35.14
2019-05-05T00:23:08.193Z,35.08
2019-05-05T00:24:08.183Z,34.76
2019-05-05T00:25:08.182Z,34.58
2019-05-05T00:26:08.176Z,34.39
2019-05-05T00:27:08.168Z,34.20
2019-05-05T00:28:08.170Z,34.01
2019-05-05T00:29:08.161Z,33.73
2019-05-05T00:30:08.138Z,33.48
2019-05-05T00:31:08.135Z,33.14
2019-05-05T00:32:08.134Z,32.66
2019-05-05T00:33:08.122Z,32.37
2019-05-05T00:34:08.121Z,31.91
2019-05-05T00:35:08.104Z,31.76
2019-05-05T00:36:08.109Z,31.48
2019-05-05T00:37:08.094Z,31.20
2019-05-05T00:38:08.070Z,31.17
2019-05-05T00:39:08.076Z,30.99
2019-05-05T00:40:08.069Z,30.93
2019-05-05T00:41:08.061Z,30.75
2019-05-05T00:42:08.037Z,30.52
2019-05-05T00:43:08.052Z,30.37
2019-05-05T00:44:08.044Z,30.33
2019-05-05T00:45:08.039Z,30.26
2019-05-05T00:46:08.019Z,30.16
2019-05-05T00:47:08.008Z,30.08
2019-05-05T00:48:08.002Z,30.09
2019-05-05T00:49:07.988Z,30.19
2019-05-05T00:50:07.982Z,30.19
2019-05-05T00:51:07.976Z,30.15
2019-05-05T00:52:07.971Z,30.16
2019-05-05T00:53:07.971Z,30.18
2019-05-05T00:54:07.953Z,30.24
2019-05-05T00:55:07.941Z,30.24
2019-05-05T00:56:07.936Z,30.26
2019-05-05T00:57:07.930Z,30.30
2019-05-05T00:58:07.926Z,30.15
2019-05-05T00:59:07.902Z,30.16
2019-05-05T01:00:07.903Z,30.09
2019-05-05T01:01:07.898Z,30.07
2019-05-05T01:02:07.898Z,29.99
2019-05-05T01:03:07.871Z,29.93
2019-05-05T01:04:07.876Z,29.77
2019-05-05T01:05:07.864Z,29.68
2019-05-05T01:06:07.843Z,29.63
2019-05-05T01:07:07.852Z,29.62
2019-05-05T01:08:07.843Z,29.59
2019-05-05T01:09:07.838Z,29.47
2019-05-05T01:10:07.809Z,29.45
2019-05-05T01:11:07.827Z,29.47
2019-05-05T01:12:07.805Z,29.40
2019-05-05T01:13:07.796Z,29.52
2019-05-05T01:14:07.792Z,29.38
2019-05-05T01:15:07.781Z,29.37
2019-05-05T01:16:07.771Z,29.45
2019-05-05T01:17:07.771Z,29.33
2019-05-05T01:18:07.756Z,29.34
2019-05-05T01:19:07.745Z,29.35
2019-05-05T01:20:07.733Z,29.31
2019-05-05T01:21:07.732Z,29.20
2019-05-05T01:22:07.724Z,29.23
2019-05-05T01:23:07.704Z,29.19
2019-05-05T01:24:07.694Z,29.23
2019-05-05T01:25:07.694Z,29.04
2019-05-05T01:26:07.707Z,29.15
2019-05-05T01:27:07.676Z,29.11
2019-05-05T01:28:07.685Z,29.16
2019-05-05T01:29:07.654Z,29.00
2019-05-05T01:30:07.668Z,29.00
2019-05-05T01:31:07.647Z,29.01
2019-05-05T01:32:07.634Z,28.91
2019-05-05T01:33:07.633Z,28.95
2019-05-05T01:34:07.612Z,28.95
2019-05-05T01:35:07.615Z,28.87
2019-05-05T01:36:07.601Z,28.81
2019-05-05T01:37:07.599Z,28.80
2019-05-05T01:38:07.595Z,28.77
2019-05-05T01:39:07.582Z,28.87
2019-05-05T01:40:07.573Z,28.80
2019-05-05T01:41:07.556Z,28.81
2019-05-05T01:42:07.559Z,28.73
2019-05-05T01:43:07.552Z,28.75
2019-05-05T01:44:07.530Z,28.73
2019-05-05T01:45:07.542Z,28.77
2019-05-05T01:46:07.524Z,28.66
2019-05-05T01:47:07.520Z,28.66
2019-05-05T01:48:07.510Z,28.63
2019-05-05T01:49:07.511Z,28.58
2019-05-05T01:50:17.243Z,28.58
2019-05-05T01:51:07.491Z,28.54
2019-05-05T01:52:07.477Z,28.62
2019-05-05T01:53:07.472Z,28.53
2019-05-05T01:54:07.448Z,28.51
2019-05-05T01:55:07.454Z,28.48
2019-05-05T01:56:07.450Z,28.47
2019-05-05T01:57:07.425Z,28.44
2019-05-05T01:58:07.424Z,28.46
2019-05-05T01:59:07.420Z,28.40
2019-05-05T02:00:07.423Z,28.35
2019-05-05T02:01:07.401Z,28.35
2019-05-05T02:02:07.382Z,28.32
2019-05-05T02:03:07.375Z,28.26
2019-05-05T02:04:07.385Z,28.23
2019-05-05T02:05:07.359Z,28.25
2019-05-05T02:06:07.363Z,28.21
2019-05-05T02:07:07.339Z,28.21
2019-05-05T02:08:07.333Z,28.16
2019-05-05T02:09:07.332Z,28.11
2019-05-05T02:10:07.327Z,28.04
2019-05-05T02:11:07.326Z,28.10
2019-05-05T02:12:07.307Z,28.06
2019-05-05T02:13:07.310Z,28.07
2019-05-05T02:14:07.281Z,27.96
2019-05-05T02:15:07.286Z,28.01
2019-05-05T02:16:07.276Z,27.96
2019-05-05T02:17:07.270Z,27.92
2019-05-05T02:18:07.266Z,27.95
2019-05-05T02:19:07.261Z,27.88
2019-05-05T02:20:07.235Z,27.86
2019-05-05T02:21:07.228Z,27.77
2019-05-05T02:22:07.227Z,27.76
2019-05-05T02:23:07.205Z,27.80
2019-05-05T02:24:07.210Z,27.77
2019-05-05T02:25:07.188Z,27.69
2019-05-05T02:26:07.180Z,27.62
2019-05-05T02:27:07.169Z,27.66
2019-05-05T02:28:07.170Z,27.54
2019-05-05T02:29:07.166Z,27.54
2019-05-05T02:30:07.153Z,27.54
2019-05-05T02:31:07.144Z,27.54
2019-05-05T02:32:07.153Z,27.47
2019-05-05T02:33:07.130Z,27.38
2019-05-05T02:34:07.123Z,27.46
2019-05-05T02:35:07.124Z,27.32
2019-05-05T02:36:07.106Z,27.36
2019-05-05T02:37:07.089Z,27.31
2019-05-05T02:38:07.126Z,27.16
2019-05-05T02:39:07.068Z,27.21
2019-05-05T02:40:07.609Z,27.19
2019-05-05T02:41:07.070Z,27.19
2019-05-05T02:42:07.062Z,27.13
2019-05-05T02:43:07.047Z,27.06
2019-05-05T02:44:07.028Z,27.14
2019-05-05T02:45:07.035Z,27.09
2019-05-05T02:46:07.010Z,27.05
2019-05-05T02:47:07.016Z,26.96
2019-05-05T02:48:07.012Z,26.96
2019-05-05T02:49:07.009Z,26.99
2019-05-05T02:50:07.011Z,26.89
2019-05-05T02:51:07.442Z,26.94
2019-05-05T02:52:06.969Z,26.86
2019-05-05T02:53:06.965Z,26.84
2019-05-05T02:54:06.961Z,26.80
2019-05-05T02:55:06.954Z,26.80
2019-05-05T02:56:06.944Z,26.74
2019-05-05T02:57:06.925Z,26.64
2019-05-05T02:58:06.913Z,26.64
2019-05-05T02:59:06.915Z,26.62
2019-05-05T03:00:06.889Z,26.54
2019-05-05T03:01:06.885Z,26.55
2019-05-05T03:02:06.891Z,26.52
2019-05-05T03:03:06.873Z,26.54
2019-05-05T03:04:06.850Z,26.50
2019-05-05T03:05:06.863Z,26.42
2019-05-05T03:06:06.842Z,26.43
2019-05-05T03:07:06.834Z,26.44
2019-05-05T03:08:06.822Z,26.36
2019-05-05T03:09:06.818Z,26.36
2019-05-05T03:10:06.803Z,26.31
2019-05-05T03:11:06.809Z,26.27
2019-05-05T03:12:06.783Z,26.20
2019-05-05T03:13:06.784Z,26.20
2019-05-05T03:14:06.774Z,26.09
2019-05-05T03:15:06.754Z,26.15
2019-05-05T03:16:06.762Z,26.04
2019-05-05T03:17:06.738Z,26.04
2019-05-05T03:18:06.748Z,25.99
2019-05-05T03:19:06.737Z,25.94
2019-05-05T03:20:06.719Z,25.93
2019-05-05T03:21:07.423Z,25.91
2019-05-05T03:22:06.704Z,25.87
2019-05-05T03:23:06.693Z,25.90
2019-05-05T03:24:06.696Z,25.80
2019-05-05T03:25:06.664Z,25.77
2019-05-05T03:26:06.668Z,25.80
2019-05-05T03:27:06.656Z,25.79
2019-05-05T03:28:06.649Z,25.68
2019-05-05T03:29:06.631Z,25.72
2019-05-05T03:30:06.641Z,25.62
2019-05-05T03:31:06.639Z,25.68
2019-05-05T03:32:11.261Z,25.53
2019-05-05T03:33:06.595Z,25.59
2019-05-05T03:34:06.809Z,25.57
2019-05-05T03:35:06.581Z,25.47
2019-05-05T03:36:06.574Z,25.47
2019-05-05T03:37:06.562Z,25.46
2019-05-05T03:38:06.552Z,25.37
2019-05-05T03:39:06.550Z,25.39
2019-05-05T03:40:06.536Z,25.31
2019-05-05T03:41:06.539Z,25.30
2019-05-05T03:42:06.509Z,25.25
2019-05-05T03:43:06.510Z,25.27
2019-05-05T03:44:06.508Z,25.15
2019-05-05T03:45:06.484Z,25.24
2019-05-05T03:46:06.485Z,25.17
2019-05-05T03:47:06.483Z,25.12
2019-05-05T03:48:06.470Z,25.07
2019-05-05T03:49:06.460Z,24.95
2019-05-05T03:50:06.457Z,24.95
2019-05-05T03:51:18.255Z,24.87
2019-05-05T03:52:06.441Z,24.90
2019-05-05T03:53:06.422Z,24.79
2019-05-05T03:54:06.411Z,24.80
2019-05-05T03:55:06.410Z,24.76
2019-05-05T03:56:06.404Z,24.75
2019-05-05T03:57:06.382Z,24.64
2019-05-05T03:58:06.382Z,24.63
2019-05-05T03:59:06.358Z,24.63
2019-05-05T04:00:06.370Z,24.49
2019-05-05T04:01:06.346Z,24.49
2019-05-05T04:02:06.342Z,24.49
2019-05-05T04:03:06.343Z,24.44
2019-05-05T04:04:06.328Z,24.45
2019-05-05T04:05:06.323Z,24.42
2019-05-05T04:06:06.313Z,24.37
2019-05-05T04:07:06.293Z,24.39
2019-05-05T04:08:06.304Z,24.32
2019-05-05T04:09:06.277Z,24.26
2019-05-05T04:10:06.253Z,24.22
2019-05-05T04:11:06.264Z,24.29
2019-05-05T04:12:06.236Z,24.19
2019-05-05T04:13:06.239Z,24.12
2019-05-05T04:14:06.244Z,24.20
2019-05-05T04:15:06.209Z,24.13
2019-05-05T04:16:06.222Z,24.08
2019-05-05T04:17:06.218Z,24.19
2019-05-05T04:18:06.181Z,24.14
2019-05-05T04:19:06.173Z,24.14
2019-05-05T04:20:06.170Z,24.08
2019-05-05T04:21:06.152Z,24.05
2019-05-05T04:22:06.153Z,24.02
2019-05-05T04:23:06.148Z,24.02
2019-05-05T04:24:06.132Z,23.98
2019-05-05T04:25:06.138Z,23.97
2019-05-05T04:26:06.118Z,23.94
2019-05-05T04:27:06.103Z,24.00
2019-05-05T04:28:06.086Z,23.94
2019-05-05T04:29:06.109Z,23.90
2019-05-05T04:30:06.084Z,23.89
2019-05-05T04:31:06.072Z,23.92
2019-05-05T04:32:06.057Z,23.90
2019-05-05T04:33:06.053Z,23.86
2019-05-05T04:34:06.056Z,23.85
2019-05-05T04:35:06.034Z,23.85
2019-05-05T04:36:06.023Z,23.90
2019-05-05T04:37:06.012Z,23.83
2019-05-05T04:38:06.012Z,23.83
2019-05-05T04:39:05.995Z,23.87
2019-05-05T04:40:05.993Z,23.82
2019-05-05T04:41:05.991Z,23.80
2019-05-05T04:42:05.967Z,23.85
2019-05-05T04:43:05.963Z,23.79
2019-05-05T04:44:05.948Z,23.87
2019-05-05T04:45:05.938Z,23.82
2019-05-05T04:46:05.930Z,23.80
2019-05-05T04:47:05.928Z,23.85
2019-05-05T04:48:05.913Z,23.77
2019-05-05T04:49:05.906Z,23.79
2019-05-05T04:50:05.904Z,23.80
2019-05-05T04:51:05.882Z,23.82
2019-05-05T04:52:05.874Z,23.76
2019-05-05T04:53:05.864Z,23.82
2019-05-05T04:54:05.855Z,23.76
2019-05-05T04:55:05.840Z,23.77
2019-05-05T04:56:05.823Z,23.71
2019-05-05T04:57:05.828Z,23.70
2019-05-05T04:58:05.813Z,23.75
2019-05-05T04:59:05.805Z,23.71
2019-05-05T05:00:05.797Z,23.67
2019-05-05T05:01:05.779Z,23.67
2019-05-05T05:02:05.769Z,23.72
2019-05-05T05:03:05.765Z,23.67
2019-05-05T05:04:05.765Z,23.67
2019-05-05T05:05:05.739Z,23.68
2019-05-05T05:06:05.730Z,23.64
2019-05-05T05:07:05.741Z,23.65
2019-05-05T05:08:05.722Z,23.64
2019-05-05T05:09:05.710Z,23.68
2019-05-05T05:10:05.701Z,23.68
2019-05-05T05:11:05.694Z,23.68
2019-05-05T05:12:05.696Z,23.70
2019-05-05T05:13:05.684Z,23.67
2019-05-05T05:14:05.665Z,23.67
2019-05-05T05:15:05.655Z,23.67
2019-05-05T05:16:05.644Z,23.60
2019-05-05T05:17:05.646Z,23.61
2019-05-05T05:18:05.646Z,23.60
2019-05-05T05:19:05.606Z,23.65
2019-05-05T05:20:05.606Z,23.53
2019-05-05T05:21:05.591Z,23.67
2019-05-05T05:22:05.608Z,23.57
2019-05-05T05:23:05.574Z,23.61
2019-05-05T05:24:05.557Z,23.55
2019-05-05T05:25:05.561Z,23.58
2019-05-05T05:26:05.557Z,23.61
2019-05-05T05:27:05.550Z,23.57
2019-05-05T05:28:05.536Z,23.53
2019-05-05T05:29:05.506Z,23.60
2019-05-05T05:30:05.498Z,23.58
2019-05-05T05:31:05.489Z,23.61
2019-05-05T05:32:05.478Z,23.60
2019-05-05T05:33:05.483Z,23.49
2019-05-05T05:34:05.460Z,23.58
2019-05-05T05:35:05.461Z,23.58
2019-05-05T05:36:05.458Z,23.55
2019-05-05T05:37:05.451Z,23.42
2019-05-05T05:38:05.425Z,23.55
2019-05-05T05:39:05.412Z,23.52
2019-05-05T05:40:05.412Z,23.43
2019-05-05T05:41:05.414Z,23.49
2019-05-05T05:42:05.406Z,23.52
2019-05-05T05:43:05.384Z,23.52
2019-05-05T05:44:05.365Z,23.50
2019-05-05T05:45:05.365Z,23.43
2019-05-05T05:46:05.366Z,23.50
2019-05-05T05:47:05.344Z,23.55
2019-05-05T05:48:05.331Z,23.55
2019-05-05T05:49:05.323Z,23.49
2019-05-05T05:50:05.311Z,23.52
2019-05-05T05:51:05.303Z,23.53
2019-05-05T05:52:13.572Z,23.58
2019-05-05T05:53:05.289Z,23.52
2019-05-05T05:54:05.273Z,23.50
2019-05-05T05:55:05.266Z,23.58
2019-05-05T05:56:05.265Z,23.42
2019-05-05T05:57:05.248Z,23.50
2019-05-05T05:58:05.242Z,23.43
2019-05-05T05:59:05.229Z,23.42
2019-05-05T06:00:05.208Z,23.45
2019-05-05T06:01:05.217Z,23.47
2019-05-05T06:02:09.788Z,23.38
2019-05-05T06:03:05.179Z,23.32
2019-05-05T06:04:05.178Z,23.31
2019-05-05T06:05:05.179Z,23.35
2019-05-05T06:06:05.165Z,23.31
2019-05-05T06:07:05.153Z,23.32
2019-05-05T06:08:05.143Z,23.29
2019-05-05T06:09:05.130Z,23.31
2019-05-05T06:10:05.110Z,23.27
2019-05-05T06:11:05.098Z,23.26
2019-05-05T06:12:05.101Z,23.23
2019-05-05T06:13:05.083Z,23.31
2019-05-05T06:14:05.089Z,23.26
2019-05-05T06:15:05.067Z,23.27
2019-05-05T06:16:05.062Z,23.29
2019-05-05T06:17:05.060Z,23.27
2019-05-05T06:18:05.054Z,23.27
2019-05-05T06:19:05.052Z,23.24
2019-05-05T06:20:05.032Z,23.24
2019-05-05T06:21:05.013Z,23.22
2019-05-05T06:22:05.010Z,23.22
2019-05-05T06:23:05.004Z,23.20
2019-05-05T06:24:04.987Z,23.22
2019-05-05T06:25:06.601Z,23.19
2019-05-05T06:26:06.707Z,23.17
2019-05-05T06:27:04.952Z,23.09
2019-05-05T06:28:04.946Z,23.12
2019-05-05T06:29:04.935Z,23.08
2019-05-05T06:30:04.942Z,23.12
2019-05-05T06:31:05.101Z,23.14
2019-05-05T06:32:04.918Z,23.12
2019-05-05T06:33:05.006Z,23.02
2019-05-05T06:34:04.887Z,22.94
2019-05-05T06:35:04.898Z,22.93
2019-05-05T06:36:04.883Z,22.92
2019-05-05T06:37:04.867Z,23.04
2019-05-05T06:38:04.892Z,22.99
2019-05-05T06:39:04.827Z,22.96
2019-05-05T06:40:04.824Z,22.92
2019-05-05T06:41:04.830Z,22.87
2019-05-05T06:42:04.808Z,22.89
2019-05-05T06:43:04.807Z,22.83
2019-05-05T06:44:04.796Z,22.90
2019-05-05T06:45:04.768Z,22.83
2019-05-05T06:46:04.778Z,22.83
2019-05-05T06:47:04.991Z,22.78
2019-05-05T06:48:04.756Z,22.71
2019-05-05T06:49:04.741Z,22.80
2019-05-05T06:50:04.718Z,22.82
2019-05-05T06:51:04.729Z,22.83
2019-05-05T06:52:04.711Z,22.78
2019-05-05T06:53:04.732Z,22.82
2019-05-05T06:54:04.770Z,22.72
2019-05-05T06:55:04.687Z,22.77
2019-05-05T06:56:04.660Z,22.72
2019-05-05T06:57:04.735Z,22.77
2019-05-05T06:58:04.720Z,22.75
2019-05-05T06:59:04.650Z,22.71
2019-05-05T07:00:04.639Z,22.78
2019-05-05T07:01:04.626Z,22.72
2019-05-05T07:02:04.608Z,22.77
2019-05-05T07:03:07.691Z,22.72
2019-05-05T07:04:04.576Z,22.68
2019-05-05T07:05:04.567Z,22.69
2019-05-05T07:06:04.629Z,22.77
2019-05-05T07:07:05.151Z,22.69
2019-05-05T07:08:04.614Z,22.64
2019-05-05T07:09:05.498Z,22.64
2019-05-05T07:10:04.523Z,22.64
2019-05-05T07:11:04.555Z,22.62
2019-05-05T07:12:04.750Z,22.65
2019-05-05T07:13:05.035Z,22.67
2019-05-05T07:14:04.478Z,22.60
2019-05-05T07:15:04.496Z,22.60
2019-05-05T07:16:04.981Z,22.57
2019-05-05T07:17:05.080Z,22.59
2019-05-05T07:18:04.462Z,22.62
2019-05-05T07:19:04.519Z,22.60
2019-05-05T07:20:04.523Z,22.60
2019-05-05T07:21:04.425Z,22.53
2019-05-05T07:22:04.415Z,22.53
2019-05-05T07:23:05.324Z,22.49
2019-05-05T07:24:04.388Z,22.49
2019-05-05T07:25:04.806Z,22.52
2019-05-05T07:26:04.433Z,22.44
2019-05-05T07:27:04.930Z,22.49
2019-05-05T07:28:04.424Z,22.44
2019-05-05T07:29:04.631Z,22.47
2019-05-05T07:30:04.825Z,22.47
2019-05-05T07:31:04.631Z,22.50
2019-05-05T07:32:04.347Z,22.47
2019-05-05T07:33:04.652Z,22.49
2019-05-05T07:34:04.754Z,22.46
2019-05-05T07:35:04.326Z,22.44
2019-05-05T07:36:06.135Z,22.41
2019-05-05T07:37:04.252Z,22.35
2019-05-05T07:38:04.575Z,22.44
2019-05-05T07:39:04.243Z,22.41
2019-05-05T07:40:04.323Z,22.41
2019-05-05T07:41:04.215Z,22.43
2019-05-05T07:42:04.587Z,22.38
2019-05-05T07:43:04.598Z,22.46
2019-05-05T07:44:04.805Z,22.39
2019-05-05T07:45:08.406Z,22.34
2019-05-05T07:46:04.552Z,22.37
2019-05-05T07:47:04.163Z,22.37
2019-05-05T07:48:04.796Z,22.28
2019-05-05T07:49:04.146Z,22.27
2019-05-05T07:50:04.227Z,22.37
2019-05-05T07:51:05.315Z,22.34
2019-05-05T07:52:04.189Z,22.35
2019-05-05T07:53:12.228Z,22.39
2019-05-05T07:54:04.095Z,22.35
2019-05-05T07:55:04.080Z,22.34
2019-05-05T07:56:07.417Z,22.32
2019-05-05T07:57:04.285Z,22.35
2019-05-05T07:58:04.409Z,22.28
2019-05-05T07:59:04.107Z,22.29
2019-05-05T08:00:05.378Z,22.28
2019-05-05T08:01:04.607Z,22.32
2019-05-05T08:02:04.112Z,22.31
2019-05-05T08:03:04.003Z,22.29
2019-05-05T08:04:04.627Z,22.31
2019-05-05T08:05:04.635Z,22.22
2019-05-05T08:06:04.052Z,22.25
2019-05-05T08:07:04.145Z,22.35
2019-05-05T08:08:04.587Z,22.35
2019-05-05T08:09:04.164Z,22.29
2019-05-05T08:10:04.524Z,22.32
2019-05-05T08:11:04.788Z,22.37
2019-05-05T08:12:04.373Z,22.29
2019-05-05T08:13:04.663Z,22.38
2019-05-05T08:14:04.177Z,22.37
2019-05-05T08:15:04.447Z,22.37
2019-05-05T08:16:03.933Z,22.35
2019-05-05T08:17:04.251Z,22.34
2019-05-05T08:18:04.557Z,22.35
2019-05-05T08:19:03.945Z,22.37
2019-05-05T08:20:04.080Z,22.35
2019-05-05T08:21:04.285Z,22.31
2019-05-05T08:22:03.914Z,22.39
2019-05-05T08:23:04.654Z,22.35
2019-05-05T08:24:04.642Z,22.38
2019-05-05T08:25:04.214Z,22.31
2019-05-05T08:26:04.584Z,22.29
2019-05-05T08:27:04.500Z,22.34
2019-05-05T08:28:04.327Z,22.37
2019-05-05T08:29:04.624Z,22.41
2019-05-05T08:30:05.246Z,22.37
2019-05-05T08:31:03.938Z,22.41
2019-05-05T08:32:04.365Z,22.41
2019-05-05T08:33:04.669Z,22.41
2019-05-05T08:34:03.949Z,22.37
2019-05-05T08:35:04.313Z,22.38
2019-05-05T08:36:04.549Z,22.35
2019-05-05T08:37:04.391Z,22.43
2019-05-05T08:38:04.618Z,22.38
2019-05-05T08:39:03.809Z,22.38
2019-05-05T08:40:04.300Z,22.39
2019-05-05T08:41:04.564Z,22.39
2019-05-05T08:42:04.261Z,22.41
2019-05-05T08:43:04.576Z,22.43
2019-05-05T08:44:03.745Z,22.43
2019-05-05T08:45:04.566Z,22.35
2019-05-05T08:46:04.904Z,22.38
2019-05-05T08:47:04.421Z,22.37
2019-05-05T08:48:04.924Z,22.37
2019-05-05T08:49:04.400Z,22.32
2019-05-05T08:50:04.173Z,22.44
2019-05-05T08:51:04.840Z,22.39
2019-05-05T08:52:04.022Z,22.44
2019-05-05T08:53:04.464Z,22.39
2019-05-05T08:54:03.949Z,22.39
2019-05-05T08:55:04.730Z,22.39
2019-05-05T08:56:04.111Z,22.38
2019-05-05T08:57:04.233Z,22.37
2019-05-05T08:58:04.571Z,22.41
2019-05-05T08:59:03.708Z,22.39
2019-05-05T09:00:04.900Z,22.44
2019-05-05T09:01:04.407Z,22.41
2019-05-05T09:02:04.544Z,22.41
2019-05-05T09:03:03.906Z,22.47
2019-05-05T09:04:04.127Z,22.47
2019-05-05T09:05:04.255Z,22.37
2019-05-05T09:06:04.685Z,22.38
2019-05-05T09:07:05.040Z,22.46
2019-05-05T09:08:04.615Z,22.46
2019-05-05T09:09:03.853Z,22.50
2019-05-05T09:10:03.870Z,22.47
2019-05-05T09:11:04.792Z,22.43
2019-05-05T09:12:04.573Z,22.57
2019-05-05T09:13:03.894Z,22.52
2019-05-05T09:14:04.118Z,22.46
2019-05-05T09:15:04.446Z,22.47
2019-05-05T09:16:03.727Z,22.49
2019-05-05T09:17:04.443Z,22.50
2019-05-05T09:18:05.002Z,22.49
2019-05-05T09:19:04.124Z,22.53
2019-05-05T09:20:04.544Z,22.53
2019-05-05T09:21:04.402Z,22.43
2019-05-05T09:22:06.802Z,22.47
2019-05-05T09:23:04.185Z,22.50
2019-05-05T09:24:05.384Z,22.50
2019-05-05T09:25:04.277Z,22.44
2019-05-05T09:26:04.433Z,22.43
2019-05-05T09:27:03.607Z,22.43
2019-05-05T09:28:05.964Z,22.44
2019-05-05T09:29:04.377Z,22.46
2019-05-05T09:30:03.892Z,22.38
2019-05-05T09:31:04.179Z,22.34
2019-05-05T09:32:04.018Z,22.35
2019-05-05T09:33:03.596Z,22.32
2019-05-05T09:34:04.158Z,22.35
2019-05-05T09:35:04.758Z,22.29
2019-05-05T09:36:04.694Z,22.27
2019-05-05T09:37:03.695Z,22.27
2019-05-05T09:38:03.993Z,22.29
2019-05-05T09:39:04.360Z,22.28
2019-05-05T09:40:04.526Z,22.19
2019-05-05T09:41:03.802Z,22.27
2019-05-05T09:42:04.082Z,22.20
2019-05-05T09:43:03.886Z,22.22
2019-05-05T09:44:04.275Z,22.20
2019-05-05T09:45:04.749Z,22.16
2019-05-05T09:46:03.880Z,22.23
2019-05-05T09:47:04.754Z,22.20
2019-05-05T09:48:04.313Z,22.12
2019-05-05T09:49:04.673Z,22.10
2019-05-05T09:50:03.935Z,22.07
2019-05-05T09:51:04.377Z,22.10
2019-05-05T09:52:04.831Z,22.07
2019-05-05T09:53:04.193Z,22.06
2019-05-05T09:54:11.848Z,22.06
2019-05-05T09:55:03.829Z,22.07
2019-05-05T09:56:04.079Z,21.99
2019-05-05T09:57:04.490Z,22.06
2019-05-05T09:58:04.488Z,21.97
2019-05-05T09:59:03.780Z,22.02
2019-05-05T10:00:04.594Z,22.02
2019-05-05T10:01:03.958Z,21.99
2019-05-05T10:02:04.410Z,21.88
2019-05-05T10:03:03.796Z,21.85
2019-05-05T10:04:04.508Z,21.79
2019-05-05T10:05:03.988Z,21.81
2019-05-05T10:06:04.708Z,21.82
2019-05-05T10:07:04.429Z,21.81
2019-05-05T10:08:03.552Z,21.82
2019-05-05T10:09:02.741Z,21.74
2019-05-05T10:10:04.539Z,21.71
2019-05-05T10:11:04.137Z,21.71
2019-05-05T10:12:04.640Z,21.76
2019-05-05T10:13:04.147Z,21.79
2019-05-05T10:14:03.971Z,21.78
2019-05-05T10:15:07.173Z,21.74
2019-05-05T10:16:03.934Z,21.72
2019-05-05T10:17:04.680Z,21.75
2019-05-05T10:18:03.530Z,21.69
2019-05-05T10:19:04.445Z,21.64
2019-05-05T10:20:03.959Z,21.71
2019-05-05T10:21:04.486Z,21.69
2019-05-05T10:22:04.086Z,21.66
2019-05-05T10:23:02.586Z,21.69
2019-05-05T10:24:04.471Z,21.69
2019-05-05T10:25:04.156Z,21.66
2019-05-05T10:26:04.379Z,21.69
2019-05-05T10:27:04.716Z,21.71
2019-05-05T10:28:04.206Z,21.72
2019-05-05T10:29:04.082Z,21.71
2019-05-05T10:30:04.149Z,21.71
2019-05-05T10:31:04.531Z,21.69
2019-05-05T10:32:04.421Z,21.69
2019-05-05T10:33:03.765Z,21.63
2019-05-05T10:34:04.393Z,21.60
2019-05-05T10:35:04.442Z,21.64
2019-05-05T10:36:02.467Z,21.60
2019-05-05T10:37:04.173Z,21.60
2019-05-05T10:38:02.446Z,21.53
2019-05-05T10:39:04.349Z,21.59
2019-05-05T10:40:03.624Z,21.54
2019-05-05T10:41:04.213Z,21.59
2019-05-05T10:42:04.052Z,21.57
2019-05-05T10:43:04.224Z,21.56
2019-05-05T10:44:03.656Z,21.53
2019-05-05T10:45:04.285Z,21.56
2019-05-05T10:46:03.884Z,21.56
2019-05-05T10:47:04.364Z,21.42
2019-05-05T10:48:04.098Z,21.46
2019-05-05T10:49:02.324Z,21.45
2019-05-05T10:50:02.315Z,21.46
2019-05-05T10:51:04.129Z,21.46
2019-05-05T10:52:03.660Z,21.48
2019-05-05T10:53:04.279Z,21.39
2019-05-05T10:54:04.047Z,21.38
2019-05-05T10:55:03.931Z,21.39
2019-05-05T10:56:04.287Z,21.35
2019-05-05T10:57:03.967Z,21.41
2019-05-05T10:58:02.220Z,21.27
2019-05-05T10:59:03.954Z,21.38
2019-05-05T11:00:11.689Z,21.34
2019-05-05T11:01:04.112Z,21.34
2019-05-05T11:02:04.614Z,21.30
2019-05-05T11:03:03.930Z,21.27
2019-05-05T11:04:02.181Z,21.30
2019-05-05T11:05:03.964Z,21.27
2019-05-05T11:06:04.343Z,21.38
2019-05-05T11:07:03.976Z,21.32
2019-05-05T11:08:04.246Z,21.34
2019-05-05T11:09:04.321Z,21.30
2019-05-05T11:10:03.597Z,21.21
2019-05-05T11:11:04.063Z,21.17
2019-05-05T11:12:02.077Z,21.17
2019-05-05T11:13:02.096Z,21.16
2019-05-05T11:14:03.744Z,21.23
2019-05-05T11:15:03.952Z,21.17
2019-05-05T11:16:03.877Z,21.19
2019-05-05T11:17:03.920Z,21.14
2019-05-05T11:18:03.926Z,21.13
2019-05-05T11:19:04.201Z,21.17
2019-05-05T11:20:03.700Z,21.08
2019-05-05T11:21:03.911Z,21.09
2019-05-05T11:22:01.984Z,21.04
2019-05-05T11:23:01.981Z,21.06
2019-05-05T11:24:01.970Z,21.13
2019-05-05T11:25:01.974Z,21.06
2019-05-05T11:26:01.947Z,21.04
2019-05-05T11:27:01.936Z,20.93
2019-05-05T11:28:03.415Z,21.04
2019-05-05T11:29:04.124Z,20.93
2019-05-05T11:30:03.903Z,21.01
2019-05-05T11:31:04.231Z,21.01
2019-05-05T11:32:03.573Z,20.99
2019-05-05T11:33:03.890Z,20.99
2019-05-05T11:34:01.874Z,20.95
2019-05-05T11:35:01.864Z,20.91
2019-05-05T11:36:01.848Z,20.93
2019-05-05T11:37:03.623Z,20.90
2019-05-05T11:38:03.198Z,20.89
2019-05-05T11:39:03.971Z,20.95
2019-05-05T11:40:01.813Z,20.95
2019-05-05T11:41:01.804Z,20.87
2019-05-05T11:42:04.231Z,20.89
2019-05-05T11:43:03.772Z,20.87
2019-05-05T11:44:03.929Z,20.81
2019-05-05T11:45:04.075Z,20.83
2019-05-05T11:46:01.743Z,20.83
2019-05-05T11:47:03.609Z,20.81
2019-05-05T11:48:01.718Z,20.86
2019-05-05T11:49:01.703Z,20.81
2019-05-05T11:50:04.243Z,20.80
2019-05-05T11:51:01.692Z,20.81
2019-05-05T11:52:01.686Z,20.83
2019-05-05T11:53:03.811Z,20.80
2019-05-05T11:54:01.643Z,20.76
2019-05-05T11:55:09.750Z,20.77
2019-05-05T11:56:03.992Z,20.69
2019-05-05T11:57:01.624Z,20.68
2019-05-05T11:58:03.447Z,20.71
2019-05-05T11:59:03.730Z,20.69
2019-05-05T12:00:03.717Z,20.65
2019-05-05T12:01:03.568Z,20.68
2019-05-05T12:02:03.663Z,20.65
2019-05-05T12:03:03.695Z,20.58
2019-05-05T12:04:01.539Z,20.58
2019-05-05T12:05:01.542Z,20.65
2019-05-05T12:06:03.772Z,20.65
2019-05-05T12:07:01.523Z,20.61
2019-05-05T12:08:01.520Z,20.58
2019-05-05T12:09:01.489Z,20.69
2019-05-05T12:10:01.488Z,20.59
2019-05-05T12:11:01.481Z,20.65
2019-05-05T12:12:03.686Z,20.58
2019-05-05T12:13:01.458Z,20.53
2019-05-05T12:14:03.494Z,20.59
2019-05-05T12:15:01.450Z,20.61
2019-05-05T12:16:01.435Z,20.50
2019-05-05T12:17:01.421Z,20.50
2019-05-05T12:18:01.415Z,20.51
2019-05-05T12:19:01.392Z,20.46
2019-05-05T12:20:01.396Z,20.49
2019-05-05T12:21:01.385Z,20.46
2019-05-05T12:22:01.358Z,20.49
2019-05-05T12:23:01.366Z,20.46
2019-05-05T12:24:01.334Z,20.43
2019-05-05T12:25:01.336Z,20.42
2019-05-05T12:26:01.340Z,20.47
2019-05-05T12:27:03.565Z,20.46
2019-05-05T12:28:01.291Z,20.46
2019-05-05T12:29:01.302Z,20.43
2019-05-05T12:30:03.243Z,20.47
2019-05-05T12:31:01.261Z,20.50
2019-05-05T12:32:01.276Z,20.43
2019-05-05T12:33:01.262Z,20.35
2019-05-05T12:34:01.263Z,20.43
2019-05-05T12:35:01.220Z,20.33
2019-05-05T12:36:01.212Z,20.31
2019-05-05T12:37:01.215Z,20.47
2019-05-05T12:38:01.188Z,20.33
2019-05-05T12:39:01.177Z,20.42
2019-05-05T12:40:01.178Z,20.38
2019-05-05T12:41:01.179Z,20.35
2019-05-05T12:42:01.158Z,20.38
2019-05-05T12:43:01.144Z,20.31
2019-05-05T12:44:01.137Z,20.39
2019-05-05T12:45:01.137Z,20.34
2019-05-05T12:46:01.113Z,20.34
2019-05-05T12:47:01.095Z,20.24
2019-05-05T12:48:01.094Z,20.33
2019-05-05T12:49:01.100Z,20.30
2019-05-05T12:50:01.072Z,20.27
2019-05-05T12:51:01.071Z,20.30
2019-05-05T12:52:01.053Z,20.27